Alto Alegre, Brazil
Current Conditions -  °F | °C
As of 12:00 PM on Monday 24 Nov 2014 (Local Time) from SBBV Reporting Station
Broken Clouds Broken Clouds  
Wind Chill: 84°   Ceiling: 3500
Heat Index: 88°   Visibility: 6mi
Dew Point: 70°   Wind: 14mph
Humidity: 62%   Direction: 70°ENE
Pressure: 29.85"   Gusts: NA
Location:  2.9°N, 61.5°W
Report Text: SBBV 241600Z 07012KT 9999 BKN035 FEW040TCU 29/21 Q1011
Loading
Personal Weather Stations






























Interactive Weather Map New forecast layout! Learn more

10-Day Weather Forecast

Advertisements
Track Severe Weather on mobile